sensor_id;sensor_type;location;lat;lon;timestamp;P1;durP1;ratioP1;P2;durP2;ratioP2
20597;SDS011;10457;48.770;11.446;2022-10-19T00:04:53;12.07;;;8.60;;
20597;SDS011;10457;48.770;11.446;2022-10-19T00:10:16;15.25;;;9.30;;
20597;SDS011;10457;48.770;11.446;2022-10-19T00:15:38;10.95;;;8.52;;
20597;SDS011;10457;48.770;11.446;2022-10-19T00:21:01;12.25;;;8.57;;
20597;SDS011;10457;48.770;11.446;2022-10-19T00:26:26;17.60;;;8.60;;
20597;SDS011;10457;48.770;11.446;2022-10-19T00:31:47;14.30;;;9.48;;
20597;SDS011;10457;48.770;11.446;2022-10-19T00:37:09;10.30;;;9.25;;
20597;SDS011;10457;48.770;11.446;2022-10-19T00:47:55;15.85;;;8.90;;
20597;SDS011;10457;48.770;11.446;2022-10-19T00:53:16;11.15;;;9.50;;
20597;SDS011;10457;48.770;11.446;2022-10-19T00:59:07;10.45;;;8.65;;
20597;SDS011;10457;48.770;11.446;2022-10-19T01:04:31;10.20;;;9.15;;
20597;SDS011;10457;48.770;11.446;2022-10-19T01:09:55;16.27;;;9.60;;
20597;SDS011;10457;48.770;11.446;2022-10-19T01:15:22;13.50;;;9.50;;
20597;SDS011;10457;48.770;11.446;2022-10-19T01:26:53;12.02;;;9.93;;
20597;SDS011;10457;48.770;11.446;2022-10-19T01:32:53;11.63;;;9.23;;
20597;SDS011;10457;48.770;11.446;2022-10-19T01:38:24;13.18;;;8.95;;
20597;SDS011;10457;48.770;11.446;2022-10-19T01:43:55;11.82;;;8.57;;
20597;SDS011;10457;48.770;11.446;2022-10-19T01:49:23;12.90;;;9.10;;
20597;SDS011;10457;48.770;11.446;2022-10-19T01:54:59;11.65;;;8.02;;
20597;SDS011;10457;48.770;11.446;2022-10-19T02:00:24;14.23;;;9.10;;
20597;SDS011;10457;48.770;11.446;2022-10-19T02:05:48;12.13;;;7.85;;
20597;SDS011;10457;48.770;11.446;2022-10-19T02:11:12;10.40;;;7.63;;
20597;SDS011;10457;48.770;11.446;2022-10-19T02:16:35;11.10;;;7.35;;
20597;SDS011;10457;48.770;11.446;2022-10-19T02:22:02;9.75;;;8.07;;
20597;SDS011;10457;48.770;11.446;2022-10-19T02:27:24;10.20;;;7.53;;
20597;SDS011;10457;48.770;11.446;2022-10-19T02:32:46;14.20;;;8.60;;
20597;SDS011;10457;48.770;11.446;2022-10-19T02:38:09;9.30;;;6.57;;
20597;SDS011;10457;48.770;11.446;2022-10-19T02:43:36;9.40;;;7.68;;
20597;SDS011;10457;48.770;11.446;2022-10-19T02:49:01;8.75;;;7.43;;
20597;SDS011;10457;48.770;11.446;2022-10-19T02:54:25;15.40;;;8.82;;
20597;SDS011;10457;48.770;11.446;2022-10-19T02:59:47;11.73;;;8.70;;
20597;SDS011;10457;48.770;11.446;2022-10-19T03:05:09;16.52;;;8.82;;
20597;SDS011;10457;48.770;11.446;2022-10-19T03:10:32;14.05;;;10.25;;
20597;SDS011;10457;48.770;11.446;2022-10-19T03:15:53;15.10;;;9.82;;
20597;SDS011;10457;48.770;11.446;2022-10-19T03:21:15;16.70;;;10.40;;
20597;SDS011;10457;48.770;11.446;2022-10-19T03:26:39;18.00;;;10.70;;
20597;SDS011;10457;48.770;11.446;2022-10-19T03:32:01;18.13;;;12.10;;
20597;SDS011;10457;48.770;11.446;2022-10-19T03:37:22;14.15;;;11.40;;
20597;SDS011;10457;48.770;11.446;2022-10-19T03:42:45;17.85;;;12.32;;
20597;SDS011;10457;48.770;11.446;2022-10-19T03:48:06;17.25;;;12.75;;
20597;SDS011;10457;48.770;11.446;2022-10-19T03:53:28;20.23;;;13.05;;
20597;SDS011;10457;48.770;11.446;2022-10-19T03:58:52;17.20;;;12.38;;
20597;SDS011;10457;48.770;11.446;2022-10-19T04:04:16;17.38;;;12.48;;
20597;SDS011;10457;48.770;11.446;2022-10-19T04:09:39;19.00;;;14.02;;
20597;SDS011;10457;48.770;11.446;2022-10-19T04:15:02;18.00;;;12.82;;
20597;SDS011;10457;48.770;11.446;2022-10-19T04:20:32;25.35;;;14.55;;
20597;SDS011;10457;48.770;11.446;2022-10-19T04:25:57;20.33;;;14.18;;
20597;SDS011;10457;48.770;11.446;2022-10-19T04:31:22;22.38;;;14.00;;
20597;SDS011;10457;48.770;11.446;2022-10-19T04:36:43;22.00;;;13.50;;
20597;SDS011;10457;48.770;11.446;2022-10-19T04:42:05;18.95;;;13.50;;
20597;SDS011;10457;48.770;11.446;2022-10-19T04:47:28;17.27;;;9.63;;
20597;SDS011;10457;48.770;11.446;2022-10-19T04:52:50;15.82;;;8.98;;
20597;SDS011;10457;48.770;11.446;2022-10-19T04:58:12;14.90;;;8.85;;
20597;SDS011;10457;48.770;11.446;2022-10-19T05:03:35;17.73;;;10.20;;
20597;SDS011;10457;48.770;11.446;2022-10-19T05:08:57;17.10;;;10.18;;
20597;SDS011;10457;48.770;11.446;2022-10-19T05:14:19;14.07;;;8.63;;
20597;SDS011;10457;48.770;11.446;2022-10-19T05:19:43;16.73;;;7.72;;
20597;SDS011;10457;48.770;11.446;2022-10-19T05:25:09;14.65;;;9.88;;
20597;SDS011;10457;48.770;11.446;2022-10-19T05:30:30;13.20;;;9.00;;
20597;SDS011;10457;48.770;11.446;2022-10-19T05:35:53;15.45;;;10.10;;
20597;SDS011;10457;48.770;11.446;2022-10-19T05:41:14;14.15;;;9.60;;
20597;SDS011;10457;48.770;11.446;2022-10-19T05:46:48;14.18;;;8.57;;
20597;SDS011;10457;48.770;11.446;2022-10-19T05:52:12;20.27;;;9.60;;
20597;SDS011;10457;48.770;11.446;2022-10-19T05:57:36;17.45;;;9.50;;
20597;SDS011;10457;48.770;11.446;2022-10-19T06:02:57;16.63;;;9.82;;
20597;SDS011;10457;48.770;11.446;2022-10-19T06:08:21;14.85;;;9.38;;
20597;SDS011;10457;48.770;11.446;2022-10-19T06:13:44;13.60;;;9.90;;
20597;SDS011;10457;48.770;11.446;2022-10-19T06:19:10;17.10;;;10.38;;
20597;SDS011;10457;48.770;11.446;2022-10-19T06:24:34;13.45;;;9.80;;
20597;SDS011;10457;48.770;11.446;2022-10-19T06:30:00;14.68;;;8.85;;
20597;SDS011;10457;48.770;11.446;2022-10-19T06:35:21;11.23;;;7.93;;
20597;SDS011;10457;48.770;11.446;2022-10-19T06:40:44;10.75;;;7.75;;
20597;SDS011;10457;48.770;11.446;2022-10-19T06:46:08;9.88;;;7.55;;
20597;SDS011;10457;48.770;11.446;2022-10-19T06:52:01;11.32;;;6.88;;
20597;SDS011;10457;48.770;11.446;2022-10-19T06:57:30;12.20;;;7.90;;
20597;SDS011;10457;48.770;11.446;2022-10-19T07:02:52;14.13;;;8.80;;
20597;SDS011;10457;48.770;11.446;2022-10-19T07:08:14;19.17;;;9.02;;
20597;SDS011;10457;48.770;11.446;2022-10-19T07:13:37;11.95;;;7.38;;
20597;SDS011;10457;48.770;11.446;2022-10-19T07:18:59;13.85;;;7.80;;
20597;SDS011;10457;48.770;11.446;2022-10-19T07:24:25;12.85;;;8.07;;
20597;SDS011;10457;48.770;11.446;2022-10-19T07:29:50;11.00;;;7.70;;
20597;SDS011;10457;48.770;11.446;2022-10-19T07:35:24;6.50;;;5.25;;
20597;SDS011;10457;48.770;11.446;2022-10-19T07:40:46;5.43;;;4.65;;
20597;SDS011;10457;48.770;11.446;2022-10-19T07:46:10;3.35;;;3.03;;
20597;SDS011;10457;48.770;11.446;2022-10-19T07:51:33;4.38;;;3.05;;
20597;SDS011;10457;48.770;11.446;2022-10-19T07:56:55;3.28;;;2.80;;
20597;SDS011;10457;48.770;11.446;2022-10-19T08:02:18;7.05;;;3.95;;
20597;SDS011;10457;48.770;11.446;2022-10-19T08:07:40;7.43;;;5.55;;
20597;SDS011;10457;48.770;11.446;2022-10-19T08:13:01;5.97;;;4.97;;
20597;SDS011;10457;48.770;11.446;2022-10-19T08:18:24;5.50;;;4.78;;
20597;SDS011;10457;48.770;11.446;2022-10-19T08:23:46;5.03;;;4.28;;
20597;SDS011;10457;48.770;11.446;2022-10-19T08:29:10;3.97;;;3.58;;
20597;SDS011;10457;48.770;11.446;2022-10-19T08:34:36;4.10;;;3.55;;
20597;SDS011;10457;48.770;11.446;2022-10-19T08:39:57;4.63;;;3.17;;
20597;SDS011;10457;48.770;11.446;2022-10-19T08:45:26;5.43;;;3.55;;
20597;SDS011;10457;48.770;11.446;2022-10-19T08:50:59;4.78;;;3.95;;
20597;SDS011;10457;48.770;11.446;2022-10-19T08:56:23;5.00;;;4.53;;
20597;SDS011;10457;48.770;11.446;2022-10-19T09:01:52;5.97;;;4.30;;
20597;SDS011;10457;48.770;11.446;2022-10-19T09:07:23;3.65;;;3.35;;
20597;SDS011;10457;48.770;11.446;2022-10-19T09:12:48;5.20;;;4.78;;
20597;SDS011;10457;48.770;11.446;2022-10-19T09:18:18;4.53;;;3.78;;
20597;SDS011;10457;48.770;11.446;2022-10-19T09:23:44;5.07;;;4.32;;
20597;SDS011;10457;48.770;11.446;2022-10-19T09:29:15;4.28;;;3.78;;
20597;SDS011;10457;48.770;11.446;2022-10-19T09:34:46;3.47;;;3.17;;
20597;SDS011;10457;48.770;11.446;2022-10-19T09:40:12;3.30;;;3.00;;
20597;SDS011;10457;48.770;11.446;2022-10-19T09:45:39;3.80;;;3.40;;
20597;SDS011;10457;48.770;11.446;2022-10-19T09:51:10;3.92;;;3.53;;
20597;SDS011;10457;48.770;11.446;2022-10-19T09:57:00;4.22;;;3.53;;
20597;SDS011;10457;48.770;11.446;2022-10-19T10:02:27;4.05;;;3.25;;
20597;SDS011;10457;48.770;11.446;2022-10-19T10:07:53;4.25;;;2.92;;
20597;SDS011;10457;48.770;11.446;2022-10-19T10:13:17;7.70;;;3.13;;
20597;SDS011;10457;48.770;11.446;2022-10-19T10:18:44;4.22;;;3.10;;
20597;SDS011;10457;48.770;11.446;2022-10-19T10:24:15;3.38;;;3.08;;
20597;SDS011;10457;48.770;11.446;2022-10-19T10:29:47;3.50;;;3.20;;
20597;SDS011;10457;48.770;11.446;2022-10-19T10:35:15;4.45;;;4.05;;
20597;SDS011;10457;48.770;11.446;2022-10-19T10:40:47;5.10;;;4.60;;
20597;SDS011;10457;48.770;11.446;2022-10-19T10:46:13;5.40;;;4.88;;
20597;SDS011;10457;48.770;11.446;2022-10-19T10:51:41;7.25;;;4.95;;
20597;SDS011;10457;48.770;11.446;2022-10-19T10:57:11;7.13;;;4.60;;
20597;SDS011;10457;48.770;11.446;2022-10-19T11:02:40;5.43;;;4.60;;
20597;SDS011;10457;48.770;11.446;2022-10-19T11:08:11;6.05;;;5.45;;
20597;SDS011;10457;48.770;11.446;2022-10-19T11:13:41;5.72;;;5.20;;
20597;SDS011;10457;48.770;11.446;2022-10-19T11:19:15;5.93;;;4.28;;
20597;SDS011;10457;48.770;11.446;2022-10-19T11:24:56;5.15;;;4.15;;
20597;SDS011;10457;48.770;11.446;2022-10-19T11:30:39;4.15;;;3.85;;
20597;SDS011;10457;48.770;11.446;2022-10-19T11:36:19;6.53;;;4.70;;
20597;SDS011;10457;48.770;11.446;2022-10-19T11:41:59;3.88;;;3.55;;
20597;SDS011;10457;48.770;11.446;2022-10-19T11:47:36;5.00;;;3.92;;
20597;SDS011;10457;48.770;11.446;2022-10-19T11:53:14;4.10;;;3.78;;
20597;SDS011;10457;48.770;11.446;2022-10-19T11:58:50;3.83;;;3.28;;
20597;SDS011;10457;48.770;11.446;2022-10-19T12:04:24;5.40;;;3.58;;
20597;SDS011;10457;48.770;11.446;2022-10-19T12:10:17;3.75;;;3.45;;
20597;SDS011;10457;48.770;11.446;2022-10-19T12:15:47;6.00;;;4.22;;
20597;SDS011;10457;48.770;11.446;2022-10-19T12:21:13;3.47;;;3.17;;
20597;SDS011;10457;48.770;11.446;2022-10-19T12:26:43;4.55;;;3.60;;
20597;SDS011;10457;48.770;11.446;2022-10-19T12:32:05;3.28;;;2.95;;
20597;SDS011;10457;48.770;11.446;2022-10-19T12:37:30;2.97;;;2.78;;
20597;SDS011;10457;48.770;11.446;2022-10-19T12:43:02;4.07;;;2.90;;
20597;SDS011;10457;48.770;11.446;2022-10-19T12:48:34;3.90;;;3.50;;
20597;SDS011;10457;48.770;11.446;2022-10-19T12:54:06;3.20;;;2.97;;
20597;SDS011;10457;48.770;11.446;2022-10-19T12:59:31;3.38;;;3.08;;
20597;SDS011;10457;48.770;11.446;2022-10-19T13:04:55;3.20;;;2.90;;
20597;SDS011;10457;48.770;11.446;2022-10-19T13:10:18;3.22;;;2.92;;
20597;SDS011;10457;48.770;11.446;2022-10-19T13:15:49;2.78;;;2.58;;
20597;SDS011;10457;48.770;11.446;2022-10-19T13:21:11;3.22;;;2.70;;
20597;SDS011;10457;48.770;11.446;2022-10-19T13:27:34;3.70;;;2.53;;
20597;SDS011;10457;48.770;11.446;2022-10-19T13:32:58;2.78;;;2.58;;
20597;SDS011;10457;48.770;11.446;2022-10-19T13:38:23;3.50;;;2.92;;
20597;SDS011;10457;48.770;11.446;2022-10-19T13:43:56;3.92;;;2.92;;
20597;SDS011;10457;48.770;11.446;2022-10-19T13:49:32;4.82;;;2.47;;
20597;SDS011;10457;48.770;11.446;2022-10-19T13:55:17;3.78;;;3.03;;
20597;SDS011;10457;48.770;11.446;2022-10-19T14:00:54;4.18;;;2.97;;
20597;SDS011;10457;48.770;11.446;2022-10-19T14:06:35;5.63;;;3.20;;
20597;SDS011;10457;48.770;11.446;2022-10-19T14:12:05;4.35;;;3.42;;
20597;SDS011;10457;48.770;11.446;2022-10-19T14:17:38;2.75;;;2.50;;
20597;SDS011;10457;48.770;11.446;2022-10-19T14:28:42;3.67;;;3.33;;
20597;SDS011;10457;48.770;11.446;2022-10-19T14:34:06;3.42;;;3.10;;
20597;SDS011;10457;48.770;11.446;2022-10-19T14:39:31;3.20;;;2.90;;
20597;SDS011;10457;48.770;11.446;2022-10-19T14:44:53;3.67;;;2.55;;
20597;SDS011;10457;48.770;11.446;2022-10-19T14:50:22;3.20;;;2.50;;
20597;SDS011;10457;48.770;11.446;2022-10-19T14:56:05;5.20;;;3.28;;
20597;SDS011;10457;48.770;11.446;2022-10-19T15:01:32;6.47;;;3.33;;
20597;SDS011;10457;48.770;11.446;2022-10-19T15:06:54;10.07;;;3.90;;
20597;SDS011;10457;48.770;11.446;2022-10-19T15:12:18;4.72;;;4.00;;
20597;SDS011;10457;48.770;11.446;2022-10-19T15:17:51;7.65;;;3.53;;
20597;SDS011;10457;48.770;11.446;2022-10-19T15:23:30;5.60;;;3.95;;
20597;SDS011;10457;48.770;11.446;2022-10-19T15:29:07;3.92;;;3.53;;
20597;SDS011;10457;48.770;11.446;2022-10-19T15:34:32;4.93;;;4.00;;
20597;SDS011;10457;48.770;11.446;2022-10-19T15:39:53;6.20;;;4.03;;
20597;SDS011;10457;48.770;11.446;2022-10-19T15:45:30;5.28;;;4.70;;
20597;SDS011;10457;48.770;11.446;2022-10-19T15:50:54;7.82;;;4.40;;
20597;SDS011;10457;48.770;11.446;2022-10-19T15:56:16;5.38;;;3.78;;
20597;SDS011;10457;48.770;11.446;2022-10-19T16:01:39;8.43;;;4.07;;
20597;SDS011;10457;48.770;11.446;2022-10-19T16:07:02;4.93;;;4.43;;
20597;SDS011;10457;48.770;11.446;2022-10-19T16:12:29;5.25;;;4.43;;
20597;SDS011;10457;48.770;11.446;2022-10-19T16:17:53;7.55;;;5.53;;
20597;SDS011;10457;48.770;11.446;2022-10-19T16:23:17;7.72;;;5.18;;
20597;SDS011;10457;48.770;11.446;2022-10-19T16:28:39;8.05;;;5.03;;
20597;SDS011;10457;48.770;11.446;2022-10-19T16:34:05;6.60;;;5.22;;
20597;SDS011;10457;48.770;11.446;2022-10-19T16:39:26;6.18;;;4.35;;
20597;SDS011;10457;48.770;11.446;2022-10-19T16:44:50;8.88;;;5.47;;
20597;SDS011;10457;48.770;11.446;2022-10-19T16:50:14;8.27;;;5.43;;
20597;SDS011;10457;48.770;11.446;2022-10-19T16:55:36;8.93;;;5.10;;
20597;SDS011;10457;48.770;11.446;2022-10-19T17:00:58;8.80;;;5.53;;
20597;SDS011;10457;48.770;11.446;2022-10-19T17:06:21;11.27;;;7.13;;
20597;SDS011;10457;48.770;11.446;2022-10-19T17:11:43;10.75;;;7.72;;
20597;SDS011;10457;48.770;11.446;2022-10-19T17:22:53;11.35;;;6.70;;
20597;SDS011;10457;48.770;11.446;2022-10-19T17:28:38;11.80;;;7.15;;
20597;SDS011;10457;48.770;11.446;2022-10-19T17:34:01;13.80;;;6.30;;
20597;SDS011;10457;48.770;11.446;2022-10-19T17:39:25;9.80;;;6.30;;
20597;SDS011;10457;48.770;11.446;2022-10-19T17:44:49;9.57;;;7.03;;
20597;SDS011;10457;48.770;11.446;2022-10-19T17:50:13;9.75;;;6.15;;
20597;SDS011;10457;48.770;11.446;2022-10-19T17:55:36;10.97;;;6.40;;
20597;SDS011;10457;48.770;11.446;2022-10-19T18:00:58;9.47;;;6.50;;
20597;SDS011;10457;48.770;11.446;2022-10-19T18:06:21;11.60;;;7.00;;
20597;SDS011;10457;48.770;11.446;2022-10-19T18:11:45;11.30;;;8.00;;
20597;SDS011;10457;48.770;11.446;2022-10-19T18:17:06;17.33;;;9.13;;
20597;SDS011;10457;48.770;11.446;2022-10-19T18:22:28;11.63;;;7.50;;
20597;SDS011;10457;48.770;11.446;2022-10-19T18:27:51;12.47;;;7.17;;
20597;SDS011;10457;48.770;11.446;2022-10-19T18:33:12;12.07;;;7.43;;
20597;SDS011;10457;48.770;11.446;2022-10-19T18:38:34;13.33;;;8.77;;
20597;SDS011;10457;48.770;11.446;2022-10-19T18:43:58;15.13;;;9.43;;
20597;SDS011;10457;48.770;11.446;2022-10-19T18:49:23;12.63;;;9.03;;
20597;SDS011;10457;48.770;11.446;2022-10-19T18:54:48;14.20;;;8.03;;
20597;SDS011;10457;48.770;11.446;2022-10-19T19:00:12;14.40;;;8.10;;
20597;SDS011;10457;48.770;11.446;2022-10-19T19:05:34;14.40;;;8.70;;
20597;SDS011;10457;48.770;11.446;2022-10-19T19:11:02;17.07;;;8.53;;
20597;SDS011;10457;48.770;11.446;2022-10-19T19:16:32;13.50;;;8.83;;
20597;SDS011;10457;48.770;11.446;2022-10-19T19:21:56;13.63;;;8.25;;
20597;SDS011;10457;48.770;11.446;2022-10-19T19:27:26;15.20;;;8.93;;
20597;SDS011;10457;48.770;11.446;2022-10-19T19:32:49;13.13;;;7.80;;
20597;SDS011;10457;48.770;11.446;2022-10-19T19:38:10;16.90;;;9.00;;
20597;SDS011;10457;48.770;11.446;2022-10-19T19:43:33;14.47;;;8.53;;
20597;SDS011;10457;48.770;11.446;2022-10-19T19:48:58;12.13;;;8.20;;
20597;SDS011;10457;48.770;11.446;2022-10-19T19:54:23;14.33;;;8.97;;
20597;SDS011;10457;48.770;11.446;2022-10-19T19:59:44;13.13;;;9.60;;
20597;SDS011;10457;48.770;11.446;2022-10-19T20:05:08;13.63;;;9.27;;
20597;SDS011;10457;48.770;11.446;2022-10-19T20:10:59;11.90;;;9.03;;
20597;SDS011;10457;48.770;11.446;2022-10-19T20:16:22;14.47;;;9.03;;
20597;SDS011;10457;48.770;11.446;2022-10-19T20:21:47;16.87;;;9.00;;
20597;SDS011;10457;48.770;11.446;2022-10-19T20:27:13;16.00;;;9.87;;
20597;SDS011;10457;48.770;11.446;2022-10-19T20:32:35;14.20;;;10.53;;
20597;SDS011;10457;48.770;11.446;2022-10-19T20:37:58;17.23;;;11.07;;
20597;SDS011;10457;48.770;11.446;2022-10-19T20:43:19;18.07;;;11.10;;
20597;SDS011;10457;48.770;11.446;2022-10-19T20:48:41;18.53;;;10.87;;
20597;SDS011;10457;48.770;11.446;2022-10-19T20:54:04;13.17;;;9.53;;
20597;SDS011;10457;48.770;11.446;2022-10-19T20:59:27;19.23;;;11.00;;
20597;SDS011;10457;48.770;11.446;2022-10-19T21:04:51;17.83;;;10.70;;
20597;SDS011;10457;48.770;11.446;2022-10-19T21:10:14;18.80;;;10.60;;
20597;SDS011;10457;48.770;11.446;2022-10-19T21:15:36;15.63;;;9.87;;
20597;SDS011;10457;48.770;11.446;2022-10-19T21:20:59;13.37;;;10.30;;
20597;SDS011;10457;48.770;11.446;2022-10-19T21:26:34;20.47;;;10.93;;
20597;SDS011;10457;48.770;11.446;2022-10-19T21:32:00;21.97;;;10.97;;
20597;SDS011;10457;48.770;11.446;2022-10-19T21:37:21;14.93;;;9.87;;
20597;SDS011;10457;48.770;11.446;2022-10-19T21:42:44;16.83;;;10.90;;
20597;SDS011;10457;48.770;11.446;2022-10-19T21:48:09;16.77;;;10.27;;
20597;SDS011;10457;48.770;11.446;2022-10-19T21:53:30;19.10;;;11.17;;
20597;SDS011;10457;48.770;11.446;2022-10-19T21:58:53;18.60;;;12.23;;
20597;SDS011;10457;48.770;11.446;2022-10-19T22:04:16;13.07;;;8.83;;
20597;SDS011;10457;48.770;11.446;2022-10-19T22:09:38;17.83;;;9.97;;
20597;SDS011;10457;48.770;11.446;2022-10-19T22:15:01;14.73;;;9.90;;
20597;SDS011;10457;48.770;11.446;2022-10-19T22:20:22;14.50;;;10.00;;
20597;SDS011;10457;48.770;11.446;2022-10-19T22:25:46;13.10;;;9.53;;
20597;SDS011;10457;48.770;11.446;2022-10-19T22:31:13;13.13;;;9.57;;
20597;SDS011;10457;48.770;11.446;2022-10-19T22:36:36;18.87;;;11.03;;
20597;SDS011;10457;48.770;11.446;2022-10-19T22:41:58;15.30;;;10.40;;
20597;SDS011;10457;48.770;11.446;2022-10-19T22:47:21;15.80;;;10.27;;
20597;SDS011;10457;48.770;11.446;2022-10-19T22:52:43;16.57;;;10.67;;
20597;SDS011;10457;48.770;11.446;2022-10-19T22:58:05;15.57;;;10.03;;
20597;SDS011;10457;48.770;11.446;2022-10-19T23:03:29;16.13;;;10.20;;
20597;SDS011;10457;48.770;11.446;2022-10-19T23:08:50;16.90;;;9.93;;
20597;SDS011;10457;48.770;11.446;2022-10-19T23:14:12;19.37;;;11.50;;
20597;SDS011;10457;48.770;11.446;2022-10-19T23:19:36;24.63;;;12.17;;
20597;SDS011;10457;48.770;11.446;2022-10-19T23:24:57;18.73;;;11.50;;
20597;SDS011;10457;48.770;11.446;2022-10-19T23:30:19;17.00;;;11.43;;
20597;SDS011;10457;48.770;11.446;2022-10-19T23:35:41;16.33;;;11.57;;
20597;SDS011;10457;48.770;11.446;2022-10-19T23:41:03;15.77;;;10.97;;
20597;SDS011;10457;48.770;11.446;2022-10-19T23:46:25;21.23;;;12.10;;
20597;SDS011;10457;48.770;11.446;2022-10-19T23:51:47;16.37;;;10.53;;
20597;SDS011;10457;48.770;11.446;2022-10-19T23:57:09;16.90;;;11.63;;
